Time;durP1;ratioP1;P1;durP2;ratioP2;P2;SDS_P1;SDS_P2;PMS_P1;PMS_P2;Temp;Humidity;BMP_temperature;BMP_pressure;BME280_temperature;BME280_humidity;BME280_pressure;Samples;Min_cycle;Max_cycle;Signal;HPM_P1;HPM_P2
2023/09/24 00:02:15;;;;;;;9.27;4.38;;;9.50;99.90;;;-144.05;80.79;56940.16;5073593;28;20025;-87
2023/09/24 00:04:44;;;;;;;7.95;4.45;;;;;;;-144.05;81.16;56933.78;5073682;28;20125;-87
2023/09/24 00:07:10;;;;;;;9.20;4.13;;;14.70;99.90;;;-144.05;80.74;56933.78;5071936;28;20028;-87
2023/09/24 00:09:37;;;;;;;9.98;4.68;;;;;;;-144.05;81.69;56938.03;5088684;28;20038;-88
2023/09/24 00:12:04;;;;;;;10.88;5.15;;;14.60;99.90;;;-144.05;81.46;56918.94;5106512;28;20032;-87
2023/09/24 00:14:33;;;;;;;9.98;4.80;;;9.30;99.90;;;-144.05;81.15;56938.03;5073534;28;20036;-87
2023/09/24 00:17:00;;;;;;;9.95;4.68;;;;;;;-144.05;81.79;56938.03;5073715;28;20096;-87
2023/09/24 00:19:26;;;;;;;10.70;4.93;;;9.90;99.90;;;-144.05;81.31;56935.91;5077763;28;20028;-83
2023/09/24 00:21:52;;;;;;;12.10;4.75;;;11.90;99.90;;;-144.05;81.57;56935.91;5086013;28;20035;-85
2023/09/24 00:24:18;;;;;;;10.63;4.93;;;14.40;99.90;;;-144.05;81.27;56942.28;5079483;28;20029;-86
2023/09/24 00:26:45;;;;;;;9.52;5.38;;;14.70;99.90;;;-144.05;81.80;56925.28;5081458;28;20474;-86
2023/09/24 00:29:13;;;;;;;10.90;5.65;;;11.80;99.90;;;-144.05;82.14;56912.56;5079829;28;20110;-89
2023/09/24 00:31:39;;;;;;;8.77;4.60;;;15.00;99.90;;;-144.05;81.81;56933.78;5074436;28;20044;-87
2023/09/24 00:34:05;;;;;;;11.75;5.22;;;15.00;99.90;;;-144.05;81.96;56923.19;5076089;28;20033;-88
2023/09/24 00:36:35;;;;;;;11.73;5.47;;;9.90;99.90;;;-144.05;82.73;56938.03;5074009;28;20074;-87
2023/09/24 00:39:02;;;;;;;10.38;5.40;;;15.10;99.90;;;-144.05;82.61;56929.53;5073162;28;20028;-87
2023/09/24 00:41:28;;;;;;;8.32;5.07;;;;;;;-144.05;82.39;56942.28;5088008;28;20021;-85
2023/09/24 00:43:54;;;;;;;11.20;5.70;;;14.10;99.90;;;-144.05;82.44;56942.28;5052718;28;20021;-87
2023/09/24 00:46:23;;;;;;;10.23;5.40;;;14.90;99.90;;;-144.05;82.55;56923.19;5078728;28;20029;-88
2023/09/24 00:48:53;;;;;;;10.10;5.90;;;11.40;99.90;;;-144.05;82.91;56952.91;5078110;28;20032;-87
2023/09/24 00:51:26;;;;;;;12.05;5.70;;;15.10;99.90;;;-144.05;82.96;56957.16;5082143;28;20063;-86
2023/09/24 00:53:55;;;;;;;10.63;5.30;;;14.80;99.90;;;-144.05;82.76;56933.78;5078000;28;20025;-86
2023/09/24 00:56:26;;;;;;;15.23;6.05;;;14.40;99.90;;;-144.05;82.76;56921.06;5074796;28;20070;-87
2023/09/24 00:58:54;;;;;;;8.05;5.07;;;14.90;99.90;;;-144.05;82.60;56976.28;5073190;28;20020;-86
2023/09/24 01:01:24;;;;;;;9.75;6.03;;;9.30;99.90;;;-144.05;83.04;56942.28;5108248;28;20078;-86
2023/09/24 01:03:51;;;;;;;16.60;5.93;;;;;;;-144.05;83.38;56959.28;5101057;28;20024;-89
2023/09/24 01:06:17;;;;;;;13.23;6.18;;;14.60;99.90;;;-144.05;83.19;56946.53;5085729;28;20059;-87
2023/09/24 01:08:47;;;;;;;8.93;5.30;;;14.90;99.90;;;-144.05;83.19;56955.03;5079019;28;20048;-88
2023/09/24 01:11:13;;;;;;;11.35;5.28;;;11.40;99.90;;;-144.05;83.00;56944.41;5074632;28;20036;-87
2023/09/24 01:13:46;;;;;;;9.88;5.18;;;15.00;99.90;;;-144.05;83.18;56929.53;5074906;28;20470;-87
2023/09/24 01:16:13;;;;;;;8.57;5.78;;;9.00;99.90;;;-144.05;83.02;56925.28;5073079;28;20032;-88
2023/09/24 01:18:41;;;;;;;6.90;5.03;;;11.30;99.90;;;-144.05;82.79;56950.78;5075213;28;20029;-88
2023/09/24 01:21:16;;;;;;;11.73;5.18;;;14.10;99.90;;;-144.05;83.01;56940.16;5076992;28;20386;-88
2023/09/24 01:23:47;;;;;;;14.25;5.75;;;11.20;99.90;;;-144.05;82.89;56916.81;5074220;28;20028;-84
2023/09/24 01:26:13;;;;;;;6.78;4.88;;;11.20;99.90;;;-144.05;83.11;56931.66;5074569;28;20036;-85
2023/09/24 01:28:40;;;;;;;13.48;6.05;;;14.90;99.90;;;-144.05;82.75;56940.16;5072442;28;20029;-87
2023/09/24 01:31:08;;;;;;;10.88;4.82;;;11.20;99.90;;;-144.05;82.62;56925.28;5072735;28;20032;-87
2023/09/24 01:33:38;;;;;;;11.57;4.97;;;10.00;99.90;;;-144.05;82.33;56946.53;5071893;28;20391;-87
2023/09/24 01:36:05;;;;;;;9.10;4.70;;;14.50;99.90;;;-144.05;82.27;56942.28;5072491;28;20056;-85
2023/09/24 01:38:32;;;;;;;8.70;4.90;;;;;;;-144.05;82.52;56950.78;5072882;28;20052;-86
2023/09/24 01:40:59;;;;;;;7.20;5.05;;;9.30;99.90;;;-144.05;82.28;56950.78;5073992;28;20032;-88
2023/09/24 01:43:25;;;;;;;9.73;5.28;;;14.40;99.90;;;-144.05;82.66;56938.03;5072305;28;20061;-87
2023/09/24 01:45:51;;;;;;;10.30;5.10;;;14.10;99.90;;;-144.05;82.80;56955.03;5072498;28;20029;-86
2023/09/24 01:48:18;;;;;;;12.00;4.35;;;;;;;-144.05;82.64;56935.91;5073369;28;20048;-86
2023/09/24 01:50:44;;;;;;;9.55;4.43;;;;;;;-144.05;82.31;56931.66;5088719;28;20036;-85
2023/09/24 01:53:10;;;;;;;9.82;4.70;;;14.30;99.90;;;-144.05;82.29;56933.78;5076295;28;20025;-87
2023/09/24 01:55:37;;;;;;;10.50;4.55;;;;;;;-144.05;82.24;56946.53;5075596;28;20370;-89
2023/09/24 01:58:04;;;;;;;12.73;4.57;;;14.70;99.90;;;-144.05;82.31;56908.31;5088825;28;20059;-87
2023/09/24 02:00:30;;;;;;;9.13;4.45;;;;;;;-144.05;82.34;56950.78;5056701;28;20025;-87
2023/09/24 02:03:00;;;;;;;6.63;3.95;;;9.20;99.90;;;-144.05;82.05;56961.41;5070146;28;20028;-85
2023/09/24 02:05:36;;;;;;;10.75;4.00;;;10.70;99.90;;;-144.05;82.21;56955.03;5076476;28;20021;-86
2023/09/24 02:08:06;;;;;;;9.10;4.28;;;10.40;99.90;;;-144.05;82.25;56965.66;5076681;28;20025;-86
2023/09/24 02:10:33;;;;;;;7.28;3.78;;;;;;;-144.05;82.13;56948.66;5074900;28;20127;-85
2023/09/24 02:13:00;;;;;;;5.40;4.03;;;12.00;99.90;;;-144.05;82.13;56938.03;5076849;28;20130;-88
2023/09/24 02:15:27;;;;;;;7.28;3.90;;;8.90;99.90;;;-144.05;82.45;56955.03;5076073;28;20127;-85
2023/09/24 02:17:54;;;;;;;6.55;4.68;;;;;;;-144.05;82.36;56942.28;5091810;28;20025;-87
2023/09/24 02:20:25;;;;;;;8.60;4.40;;;10.40;99.90;;;-144.05;82.81;56935.91;5076964;28;20024;-84
2023/09/24 02:22:58;;;;;;;8.23;4.57;;;9.40;99.90;;;-144.05;83.02;56940.16;5076999;28;20032;-86
2023/09/24 02:25:37;;;;;;;9.57;5.20;;;9.20;99.90;;;-144.05;82.83;56942.28;5077564;28;20027;-88
2023/09/24 02:28:04;;;;;;;8.00;4.70;;;11.60;99.90;;;-144.05;82.70;56942.28;5076699;28;20031;-86
2023/09/24 02:30:32;;;;;;;7.20;4.35;;;;;;;-144.05;82.69;56950.78;5075035;28;20386;-86
2023/09/24 02:33:01;;;;;;;13.73;5.03;;;11.50;99.90;;;-144.05;82.67;56942.28;5076578;28;20039;-89
2023/09/24 02:35:28;;;;;;;11.80;4.68;;;11.30;99.90;;;-144.05;82.89;56967.78;5071383;28;20052;-88
2023/09/24 02:37:55;;;;;;;10.88;4.93;;;;;;;-144.05;82.86;56965.66;5070869;28;20033;-89
2023/09/24 02:40:28;;;;;;;8.15;4.13;;;10.40;99.90;;;-144.05;82.74;56950.78;5076646;28;20036;-87
2023/09/24 02:42:58;;;;;;;6.30;4.63;;;12.00;99.90;;;-144.05;82.64;56946.53;5076553;28;20370;-86
2023/09/24 02:45:29;;;;;;;6.78;3.90;;;10.70;99.90;;;-144.05;82.59;56927.41;5076848;28;20428;-89
2023/09/24 02:47:56;;;;;;;10.80;4.50;;;;;;;-144.05;82.60;56950.78;5089448;28;20113;-88
2023/09/24 02:50:27;;;;;;;9.10;4.75;;;11.50;99.90;;;-144.05;82.69;56942.28;5074860;28;20513;-87
2023/09/24 02:53:07;;;;;;;8.10;4.25;;;10.20;99.90;;;-144.05;83.06;56961.41;5077436;28;20028;-88
2023/09/24 02:55:38;;;;;;;8.68;4.43;;;11.00;99.90;;;-144.05;82.82;56948.66;5074319;28;20090;-88
2023/09/24 02:58:05;;;;;;;8.38;4.43;;;;;;;-144.05;82.97;56959.28;5087718;28;20036;-85
2023/09/24 03:00:36;;;;;;;10.38;5.15;;;11.60;99.90;;;-144.05;83.22;56927.41;5074578;28;20115;-89
2023/09/24 03:03:07;;;;;;;7.93;4.90;;;11.80;99.90;;;-144.05;83.49;56957.16;5075228;28;20032;-90
2023/09/24 03:05:33;;;;;;;11.00;4.65;;;11.10;99.90;;;-144.05;83.08;56957.16;5074518;28;20024;-84
2023/09/24 03:08:02;;;;;;;9.45;4.30;;;10.00;99.90;;;-144.05;83.06;56942.28;5085551;28;20160;-85
2023/09/24 03:10:32;;;;;;;5.53;4.35;;;10.00;99.90;;;-144.05;83.13;56935.91;5084793;28;20113;-87
2023/09/24 03:13:00;;;;;;;7.70;4.85;;;9.90;99.90;;;-144.05;83.14;56946.53;5073552;28;20486;-87
2023/09/24 03:15:26;;;;;;;9.43;5.05;;;8.60;99.90;;;-144.05;83.24;56946.53;5075204;28;20050;-89
2023/09/24 03:17:54;;;;;;;8.05;4.97;;;9.90;99.90;;;-144.05;83.18;56980.53;5073142;28;20020;-87
2023/09/24 03:20:21;;;;;;;10.13;4.88;;;11.20;99.90;;;-144.05;83.36;56972.03;5073027;28;20054;-88
2023/09/24 03:23:08;;;;;;;11.50;4.88;;;9.90;99.90;;;-144.05;83.56;56918.94;5074302;28;20056;-89
2023/09/24 03:25:34;;;;;;;16.75;6.05;;;;;;;-144.05;83.63;56955.03;5073912;28;20037;-88
2023/09/24 03:28:01;;;;;;;10.52;5.95;;;11.70;99.90;;;-144.05;84.24;56942.28;5089444;28;20029;-87
2023/09/24 03:30:27;;;;;;;10.98;5.40;;;11.60;99.90;;;-144.05;83.92;56931.66;5073936;28;20402;-87
2023/09/24 03:32:55;;;;;;;13.07;5.82;;;11.20;99.90;;;-144.05;84.29;56946.53;5106818;28;20036;-88
2023/09/24 03:35:25;;;;;;;13.05;6.40;;;11.30;99.90;;;-144.05;84.01;56921.06;5085912;28;20048;-88
2023/09/24 03:37:52;;;;;;;11.30;5.82;;;11.50;99.90;;;-144.05;84.01;56957.16;5072751;28;20382;-87
2023/09/24 03:40:22;;;;;;;12.30;6.13;;;10.10;99.90;;;-144.05;84.13;56955.03;5073625;28;20021;-87
2023/09/24 03:42:48;;;;;;;12.40;5.85;;;10.10;99.90;;;-144.05;84.42;56933.78;5073731;28;20024;-87
2023/09/24 03:45:17;;;;;;;9.15;5.30;;;11.70;99.90;;;-144.05;84.18;56944.41;5089029;28;20486;-86
2023/09/24 03:47:45;;;;;;;13.07;6.03;;;10.10;99.90;;;-144.05;84.26;56959.28;5073455;28;20032;-83
2023/09/24 03:50:17;;;;;;;11.48;6.05;;;10.10;99.90;;;-144.05;84.33;56957.16;5085812;28;20029;-87
2023/09/24 03:52:52;;;;;;;9.85;5.63;;;10.10;99.90;;;-144.05;84.28;56942.28;5067588;28;20105;-87
2023/09/24 03:55:19;;;;;;;8.80;5.38;;;11.50;99.90;;;-144.05;84.29;56967.78;5071836;28;20028;-87
2023/09/24 03:57:47;;;;;;;13.23;6.28;;;11.10;99.90;;;-144.05;84.19;56944.41;5072258;28;20028;-87
2023/09/24 04:00:21;;;;;;;11.25;5.72;;;11.70;99.90;;;-144.05;84.52;56946.53;5086585;28;20215;-88
2023/09/24 04:02:49;;;;;;;17.35;6.78;;;10.10;99.90;;;-144.05;84.06;56969.91;5072055;28;20025;-89
2023/09/24 04:05:18;;;;;;;10.77;6.18;;;11.80;99.90;;;-144.05;84.43;56925.28;5089214;28;20028;-89
2023/09/24 04:07:50;;;;;;;13.85;5.85;;;9.30;99.90;;;-144.05;84.46;56942.28;5072059;28;20400;-86
2023/09/24 04:10:17;;;;;;;10.73;6.13;;;10.10;99.90;;;-144.05;84.24;56940.16;5073118;28;20032;-85
2023/09/24 04:12:51;;;;;;;12.55;6.53;;;11.90;99.90;;;-144.05;84.33;56980.53;5071245;28;20101;-86
2023/09/24 04:15:27;;;;;;;10.82;5.82;;;10.10;99.90;;;-144.05;84.46;56944.41;5072333;28;20107;-87
2023/09/24 04:17:58;;;;;;;13.30;5.90;;;9.20;99.90;;;-144.05;84.39;56931.66;5089097;28;20021;-85
2023/09/24 04:20:29;;;;;;;10.30;5.30;;;10.00;99.90;;;-144.05;84.35;56961.41;5079192;28;20108;-87
2023/09/24 04:22:56;;;;;;;13.90;5.63;;;;;;;-144.05;84.20;56965.66;5073114;28;20027;-88
2023/09/24 04:25:24;;;;;;;14.30;5.82;;;11.70;99.90;;;-144.05;84.21;56929.53;5073308;28;20035;-87
2023/09/24 04:27:50;;;;;;;11.85;5.68;;;9.10;99.90;;;-144.05;84.24;56929.53;5072054;28;20087;-87
2023/09/24 04:30:17;;;;;;;7.05;4.72;;;11.60;99.90;;;-144.05;84.20;56955.03;5085263;28;20029;-88
2023/09/24 04:32:52;;;;;;;7.75;5.18;;;11.50;99.90;;;-144.05;84.25;56940.16;5067450;28;20552;-86
2023/09/24 04:35:19;;;;;;;10.70;5.03;;;11.30;99.90;;;-144.05;83.91;56946.53;5073377;28;20032;-88
2023/09/24 04:37:47;;;;;;;13.55;5.40;;;11.00;99.90;;;-144.05;84.11;56887.06;5089568;28;20517;-85
2023/09/24 04:40:14;;;;;;;14.00;5.30;;;;;;;-144.05;84.01;56959.28;5073128;28;20052;-89
2023/09/24 04:42:41;;;;;;;12.98;5.95;;;9.80;99.90;;;-144.05;84.34;56967.78;5073580;28;20432;-87
2023/09/24 04:45:14;;;;;;;10.43;6.60;;;9.80;99.90;;;-144.05;84.30;56984.78;5088848;28;20558;-86
2023/09/24 04:47:42;;;;;;;9.00;5.40;;;8.90;99.90;;;-144.05;83.84;56944.41;5073877;28;20074;-87
2023/09/24 04:50:12;;;;;;;12.45;5.72;;;11.80;99.90;;;-144.05;84.14;56948.66;5073217;28;20028;-85
2023/09/24 04:52:41;;;;;;;8.23;5.57;;;9.80;99.90;;;-144.05;83.99;56969.91;5088974;28;20357;-86
2023/09/24 04:55:09;;;;;;;11.45;5.55;;;;;;;-144.05;83.94;56959.28;5091034;28;20029;-85
2023/09/24 04:57:34;;;;;;;9.73;5.63;;;11.20;99.90;;;-144.05;83.80;56959.28;5083237;28;20032;-90
2023/09/24 05:00:00;;;;;;;9.68;5.55;;;11.30;99.90;;;-144.05;83.57;56950.78;5070197;28;20194;-89
2023/09/24 05:02:26;;;;;;;9.77;5.22;;;9.30;99.90;;;-144.05;83.54;56986.91;5072775;28;20029;-87
2023/09/24 05:04:52;;;;;;;12.23;5.88;;;7.80;99.90;;;-144.05;83.56;56929.53;5074254;28;20122;-87
2023/09/24 05:07:19;;;;;;;11.15;5.70;;;;;;;-144.05;83.85;56940.16;5074842;28;20116;-85
2023/09/24 05:09:45;;;;;;;11.15;5.93;;;11.50;99.90;;;-144.05;84.21;56946.53;5079551;28;20025;-85
2023/09/24 05:12:12;;;;;;;11.55;6.20;;;9.20;99.90;;;-144.05;84.00;56955.03;5092336;28;20059;-81
2023/09/24 05:14:39;;;;;;;10.23;5.32;;;9.50;99.90;;;-144.05;83.72;56933.78;5096644;28;20044;-81
2023/09/24 05:17:05;;;;;;;12.70;5.28;;;11.40;99.90;;;-144.05;83.80;56957.16;5097241;28;20032;-88
2023/09/24 05:19:33;;;;;;;10.07;5.15;;;11.40;99.90;;;-144.05;83.64;56948.66;5073742;28;20033;-86
2023/09/24 05:21:58;;;;;;;15.10;6.30;;;10.80;99.90;;;-144.05;83.74;56925.28;5072915;28;20486;-87
2023/09/24 05:24:25;;;;;;;13.50;6.13;;;;;;;-144.05;83.61;56986.91;5081591;28;20032;-86
2023/09/24 05:26:50;;;;;;;11.88;6.40;;;11.00;99.90;;;-144.05;84.00;56942.28;5090730;28;20024;-87
2023/09/24 05:29:16;;;;;;;10.45;6.10;;;9.30;99.90;;;-144.05;83.82;56946.53;5078506;28;20119;-85
2023/09/24 05:31:43;;;;;;;10.18;6.60;;;;;;;-144.05;83.84;56957.16;5080086;28;20092;-85
2023/09/24 05:34:09;;;;;;;12.43;6.53;;;11.50;99.90;;;-144.05;83.63;56957.16;5096642;28;20112;-88
2023/09/24 05:36:35;;;;;;;10.68;7.00;;;9.30;99.90;;;-144.05;83.77;56944.41;5076345;28;20021;-87
2023/09/24 05:39:00;;;;;;;19.85;9.32;;;11.70;99.90;;;-144.05;84.50;56961.41;5069288;28;20501;-85
2023/09/24 05:41:27;;;;;;;20.38;9.38;;;;;;;-144.05;84.97;56961.41;5083142;28;20099;-90
2023/09/24 05:43:54;;;;;;;19.05;10.43;;;11.80;99.90;;;-144.05;85.80;56957.16;5079437;28;20040;-87
2023/09/24 05:46:20;;;;;;;22.58;11.07;;;11.60;99.90;;;-144.05;85.62;56925.28;5096212;28;20059;-85
2023/09/24 05:48:46;;;;;;;18.52;10.52;;;11.60;99.90;;;-144.05;85.59;56955.03;5080443;28;20032;-88
2023/09/24 05:51:12;;;;;;;19.98;10.07;;;10.00;99.90;;;-144.05;85.36;56944.41;5078740;28;20040;-89
2023/09/24 05:53:38;;;;;;;18.23;9.48;;;9.30;99.90;;;-144.05;85.33;56921.06;5079517;28;20028;-90
2023/09/24 05:56:04;;;;;;;19.15;10.48;;;10.10;99.90;;;-144.05;85.02;56946.53;5095167;28;20093;-88
2023/09/24 05:58:30;;;;;;;16.95;9.95;;;11.50;99.90;;;-144.05;84.94;56946.53;5095749;28;20044;-88
2023/09/24 06:00:56;;;;;;;19.73;10.25;;;11.80;99.90;;;-144.05;84.62;56929.53;5079625;28;20021;-88
2023/09/24 06:03:23;;;;;;;23.90;10.45;;;11.30;99.90;;;-144.05;84.22;56925.28;5077955;28;20005;-88
2023/09/24 06:05:48;;;;;;;19.05;10.60;;;10.60;99.90;;;-144.05;84.13;56948.66;5072165;28;20089;-86
2023/09/24 06:08:15;;;;;;;18.80;10.10;;;;;;;-144.05;83.95;56918.94;5085825;28;20024;-88
2023/09/24 06:10:45;;;;;;;20.05;11.02;;;10.90;99.90;;;-144.05;83.47;56931.66;5077542;28;20043;-86
2023/09/24 06:13:15;;;;;;;18.00;9.80;;;11.00;99.90;;;-144.05;83.25;56938.03;5094315;28;20025;-87
2023/09/24 06:15:44;;;;;;;19.30;10.93;;;14.60;99.90;;;-144.05;82.45;56942.28;5081381;28;20546;-85
2023/09/24 06:18:12;;;;;;;15.38;9.02;;;14.20;99.90;;;-144.05;82.43;56944.41;5081970;28;20535;-85
2023/09/24 06:20:43;;;;;;;14.10;9.43;;;9.80;99.90;;;-144.05;81.48;56914.69;5113842;28;20031;-89
2023/09/24 06:23:10;;;;;;;12.40;8.07;;;11.30;99.90;;;-144.05;82.20;56925.28;5095885;28;20573;-85
2023/09/24 06:25:36;;;;;;;11.75;8.45;;;14.60;99.90;;;-144.05;82.01;56935.91;5080706;28;20036;-86
2023/09/24 06:28:10;;;;;;;11.57;7.28;;;11.60;99.90;;;-144.05;82.21;56923.19;5092914;28;20028;-89
2023/09/24 06:30:38;;;;;;;12.55;7.70;;;14.70;99.90;;;-144.05;81.31;56935.91;5073044;28;20442;-86
2023/09/24 06:33:07;;;;;;;15.35;7.78;;;10.40;99.90;;;-144.05;79.14;56933.78;5092165;28;20037;-84
2023/09/24 06:35:38;;;;;;;11.20;6.95;;;12.50;99.90;;;-144.05;78.77;56944.41;5104307;28;20616;-84
2023/09/24 06:38:04;;;;;;;13.95;6.93;;;12.50;99.90;;;-144.05;76.62;56912.56;5080185;28;20086;-88
2023/09/24 06:40:31;;;;;;;14.68;5.97;;;;;;;-144.05;74.16;56935.91;5096092;28;20120;-85
2023/09/24 06:42:57;;;;;;;9.55;6.63;;;;;;;-144.05;71.87;56925.28;5080520;28;20500;-86
2023/09/24 06:45:23;;;;;;;9.35;6.25;;;;;;;-144.05;70.69;56914.69;5079164;28;20028;-86
2023/09/24 06:47:49;;;;;;;10.60;6.10;;;14.60;99.90;;;-144.05;69.87;56929.53;5096375;28;20028;-84
2023/09/24 06:50:15;;;;;;;10.68;6.07;;;15.50;99.90;;;-144.05;68.78;56925.28;5093440;28;20044;-86
2023/09/24 06:52:44;;;;;;;8.43;6.00;;;;;;;-144.05;68.20;56908.31;5082961;28;20050;-86
2023/09/24 06:55:10;;;;;;;6.95;5.63;;;14.80;99.90;;;-144.05;68.11;56938.03;5086116;28;20028;-84
2023/09/24 06:57:36;;;;;;;9.30;6.03;;;14.00;99.90;;;-144.05;68.15;56935.91;5088014;28;20031;-85
2023/09/24 07:00:04;;;;;;;12.00;6.47;;;14.00;99.90;;;-144.05;68.84;56935.91;5103656;28;20111;-84
2023/09/24 07:02:31;;;;;;;8.38;6.00;;;;;;;-144.05;68.64;56940.16;5102561;28;20032;-87
2023/09/24 07:04:58;;;;;;;11.85;5.85;;;;;;;-144.05;67.73;56931.66;5103805;28;20029;-84
2023/09/24 07:07:25;;;;;;;9.27;6.05;;;;;;;-144.05;68.18;56914.69;5086748;28;20062;-85
2023/09/24 07:10:01;;;;;;;9.38;5.97;;;;;;;-144.05;67.02;56912.56;5094785;28;20042;-86
2023/09/24 07:12:26;;;;;;;;;;;14.30;99.90;;;-144.05;67.98;56940.16;5101623;28;20033;-86
2023/09/24 07:14:53;;;;;;;11.38;6.07;;;16.20;99.90;;;-144.05;66.77;56942.28;5083052;28;19913;-85
2023/09/24 07:17:19;;;;;;;12.95;6.85;;;;;;;-144.05;66.73;56927.41;5088897;28;20054;-84
2023/09/24 07:19:48;;;;;;;11.30;5.68;;;;;;;-144.05;65.87;56904.06;5091797;28;20028;-84
2023/09/24 07:22:14;;;;;;;8.40;4.82;;;;;;;-144.05;66.12;56914.69;5083180;28;20036;-85
2023/09/24 07:24:40;;;;;;;8.02;5.13;;;;;;;-144.05;65.56;56938.03;5102787;28;20518;-85
2023/09/24 07:27:06;;;;;;;8.32;4.65;;;16.70;99.90;;;-144.05;64.67;56918.94;5102210;28;20107;-85
2023/09/24 07:29:33;;;;;;;7.63;4.57;;;;;;;-144.05;65.21;56925.28;5084856;28;20032;-85
2023/09/24 07:31:59;;;;;;;11.07;5.03;;;13.70;99.90;;;-144.05;63.74;56916.81;5102754;28;20032;-85
2023/09/24 07:34:25;;;;;;;13.35;5.20;;;;;;;-144.05;62.97;56925.28;5085310;28;20032;-85
2023/09/24 07:36:51;;;;;;;6.57;3.97;;;15.70;99.90;;;-144.05;63.13;56921.06;5086886;28;20390;-83
2023/09/24 07:39:17;;;;;;;9.27;4.03;;;17.50;99.90;;;-144.05;62.40;56925.28;5085321;28;20036;-86
2023/09/24 07:41:44;;;;;;;9.07;3.83;;;;;;;-144.05;62.36;56923.19;5084576;28;20035;-89
2023/09/24 07:44:10;;;;;;;6.93;3.88;;;16.80;99.90;;;-144.05;60.55;56942.28;5084243;28;20482;-86
2023/09/24 07:46:35;;;;;;;7.50;3.05;;;17.90;99.90;;;-144.05;61.28;56938.03;5101690;28;20073;-88
2023/09/24 07:49:05;;;;;;;7.65;3.17;;;16.20;99.90;;;-144.05;60.91;56929.53;5084171;28;20024;-87
2023/09/24 07:51:31;;;;;;;9.15;3.65;;;;;;;-144.05;60.84;56923.19;5083652;28;20074;-85
2023/09/24 07:53:57;;;;;;;5.25;3.53;;;;;;;-144.05;60.58;56942.28;5100677;28;20096;-84
2023/09/24 07:56:26;;;;;;;8.90;3.30;;;17.60;99.90;;;-144.05;60.86;56933.78;5101558;28;20051;-89
2023/09/24 07:58:52;;;;;;;6.50;3.13;;;17.60;99.90;;;-144.05;59.43;56948.66;5080301;28;20033;-83
2023/09/24 08:01:21;;;;;;;9.02;3.40;;;18.00;99.90;;;-144.05;60.20;56948.66;5082065;28;20561;-86
2023/09/24 08:03:49;;;;;;;6.97;3.47;;;14.70;99.90;;;-144.05;59.60;56952.91;5084739;28;20059;-88
2023/09/24 08:06:16;;;;;;;5.65;3.00;;;;;;;-144.05;59.89;56959.28;5083945;28;20447;-86
2023/09/24 08:08:42;;;;;;;12.57;3.03;;;;;;;-144.05;58.68;56908.31;5096447;28;20025;-88
2023/09/24 08:11:08;;;;;;;8.45;3.22;;;18.30;99.90;;;-144.05;59.20;56944.41;5096568;28;20081;-89
2023/09/24 08:13:35;;;;;;;5.75;2.30;;;;;;;-144.05;58.44;56946.53;5093477;28;20115;-88
2023/09/24 08:16:00;;;;;;;4.70;2.20;;;15.30;99.90;;;-144.05;57.88;56957.16;5116024;28;20116;-87
2023/09/24 08:18:27;;;;;;;6.30;2.80;;;;;;;-144.05;56.80;56927.41;5090857;28;20029;-86
2023/09/24 08:20:55;;;;;;;5.72;2.30;;;17.10;99.90;;;-144.05;57.05;56923.19;5087293;28;20033;-86
2023/09/24 08:23:23;;;;;;;3.28;1.95;;;;;;;-144.05;57.05;56933.78;5089229;28;20052;-86
2023/09/24 08:25:51;;;;;;;8.35;2.40;;;17.20;99.90;;;-144.05;56.77;56978.41;5088551;28;20020;-85
2023/09/24 08:28:18;;;;;;;4.60;2.10;;;;;;;-144.05;57.76;56916.81;5087624;28;20032;-85
2023/09/24 08:30:45;;;;;;;6.72;2.00;;;18.80;99.90;;;-144.05;55.87;56950.78;5084409;28;20032;-87
2023/09/24 08:33:11;;;;;;;4.82;1.67;;;18.40;99.90;;;-144.05;55.82;56961.41;5069265;28;20036;-86
2023/09/24 08:35:42;;;;;;;3.38;1.90;;;19.00;99.90;;;-144.05;55.79;56955.03;5075361;28;20131;-86
2023/09/24 08:38:09;;;;;;;5.13;2.03;;;18.70;99.90;;;-144.05;56.76;56933.78;5083400;28;20021;-85
2023/09/24 08:40:38;;;;;;;5.45;2.00;;;;;;;-144.05;54.72;56957.16;5081171;28;20032;-85
2023/09/24 08:43:15;;;;;;;5.07;2.15;;;15.90;99.90;;;-144.05;54.66;56940.16;5098022;28;20032;-85
2023/09/24 08:45:48;;;;;;;4.45;1.45;;;17.90;99.90;;;-144.05;53.78;56989.00;5074362;28;20021;-85
2023/09/24 08:48:20;;;;;;;3.25;1.75;;;;;;;-144.05;52.82;56959.28;5080134;28;20028;-89
2023/09/24 08:50:47;;;;;;;4.43;1.30;;;18.20;99.90;;;-144.05;52.19;56955.03;5076283;28;20028;-87
2023/09/24 08:53:16;;;;;;;5.75;1.70;;;18.20;99.90;;;-144.05;52.91;56942.28;5093477;28;20091;-87
2023/09/24 08:55:46;;;;;;;4.65;1.35;;;19.40;99.90;;;-144.05;52.34;56963.53;5093469;28;20021;-87
2023/09/24 08:58:12;;;;;;;5.55;1.33;;;19.50;99.90;;;-144.05;52.50;56957.16;5077149;28;20518;-87
2023/09/24 09:00:39;;;;;;;6.53;1.80;;;19.50;99.90;;;-144.05;51.58;56950.78;5076329;28;20024;-86
2023/09/24 09:03:05;;;;;;;4.07;1.42;;;18.50;99.90;;;-144.05;50.88;56959.28;5095794;28;20081;-86
2023/09/24 09:05:37;;;;;;;4.68;1.83;;;18.40;99.90;;;-144.05;51.33;56967.78;5097295;28;20096;-87
2023/09/24 09:08:04;;;;;;;4.28;1.02;;;19.30;99.90;;;-144.05;50.95;56938.03;5081855;28;20050;-88
2023/09/24 09:10:37;;;;;;;3.60;1.40;;;18.60;99.90;;;-144.05;51.32;56957.16;5097320;28;20048;-86
2023/09/24 09:13:11;;;;;;;3.90;1.25;;;18.60;99.90;;;-144.05;50.43;56946.53;5080107;28;20033;-86
2023/09/24 09:15:43;;;;;;;4.22;1.80;;;19.50;99.90;;;-144.05;49.54;56959.28;5085980;28;20024;-89
2023/09/24 09:18:29;;;;;;;4.80;1.70;;;20.50;99.90;;;-144.05;49.76;56976.28;5094116;28;20051;-85
2023/09/24 09:21:01;;;;;;;4.63;1.63;;;19.50;99.90;;;-144.05;48.83;56959.28;5083073;28;20021;-84
2023/09/24 09:23:41;;;;;;;3.70;1.35;;;19.40;99.90;;;-144.05;47.89;56959.28;5109638;28;20024;-90
2023/09/24 09:26:07;;;;;;;6.57;1.60;;;20.50;99.90;;;-144.05;46.57;56955.03;5106285;28;20032;-88
2023/09/24 09:28:34;;;;;;;4.10;1.45;;;20.20;99.90;;;-144.05;46.73;56976.28;5080318;28;20028;-88
2023/09/24 09:31:06;;;;;;;4.97;1.40;;;19.40;99.90;;;-144.05;47.25;56957.16;5082303;28;20036;-86
2023/09/24 09:33:36;;;;;;;3.40;1.33;;;19.50;99.90;;;-144.05;46.65;56965.66;5080513;28;20025;-88
2023/09/24 09:36:04;;;;;;;4.03;1.30;;;19.50;99.90;;;-144.05;46.05;56957.16;5082329;28;20115;-86
2023/09/24 09:38:30;;;;;;;5.28;1.20;;;;;;;-144.05;46.94;56976.28;5096784;28;20071;-86
2023/09/24 09:40:59;;;;;;;5.82;1.55;;;19.60;99.90;;;-144.05;46.28;56976.28;5096612;28;20029;-89
2023/09/24 09:43:30;;;;;;;5.20;1.23;;;19.90;99.90;;;-144.05;47.08;56950.78;5096500;28;20120;-88
2023/09/24 09:45:57;;;;;;;4.05;1.10;;;20.70;99.90;;;-144.05;45.02;56980.53;5089292;28;20025;-86
2023/09/24 09:48:32;;;;;;;4.60;1.08;;;20.90;99.90;;;-144.05;44.56;56989.00;5078486;28;20024;-87
2023/09/24 09:51:07;;;;;;;6.47;1.45;;;19.80;99.90;;;-144.05;44.47;56965.66;5078878;28;20028;-88
2023/09/24 09:53:40;;;;;;;3.33;1.37;;;19.80;99.90;;;-144.05;44.03;56972.03;5095271;28;20071;-90
2023/09/24 09:56:08;;;;;;;4.07;1.30;;;20.00;99.90;;;-144.05;43.56;56963.53;5078821;28;20378;-88
2023/09/24 09:58:37;;;;;;;3.63;1.10;;;21.00;99.90;;;-144.05;43.34;56961.41;5095316;28;20024;-88
2023/09/24 10:01:07;;;;;;;3.22;1.27;;;21.80;99.90;;;-144.05;43.64;57006.00;5100154;28;20090;-89
2023/09/24 10:03:42;;;;;;;3.50;1.23;;;21.90;99.90;;;-144.05;42.38;56989.00;5100482;28;20082;-88
2023/09/24 10:06:10;;;;;;;3.10;1.45;;;20.60;99.90;;;-144.05;41.79;57008.13;5081365;28;20043;-86
2023/09/24 10:08:47;;;;;;;2.40;1.30;;;20.70;99.90;;;-144.05;41.58;56959.28;5098773;28;20490;-87
2023/09/24 10:11:33;;;;;;;2.42;1.10;;;20.90;99.90;;;-144.05;41.41;57003.88;5095612;28;20051;-88
2023/09/24 10:14:03;;;;;;;4.72;1.10;;;;;;;-144.05;39.65;57020.88;5071615;28;20101;-86
2023/09/24 10:16:37;;;;;;;4.57;1.00;;;22.70;99.90;;;-144.05;38.29;56993.25;5082902;28;20044;-88
2023/09/24 10:19:12;;;;;;;1.38;0.77;;;20.90;99.90;;;-144.05;38.54;57008.13;5078363;28;20465;-89
2023/09/24 10:21:42;;;;;;;1.95;0.90;;;22.30;99.90;;;-144.05;37.97;57001.75;5094065;28;20029;-90
2023/09/24 10:24:14;;;;;;;1.60;0.73;;;22.40;99.90;;;-144.05;38.01;56997.50;5078752;28;20044;-84